createdAt,value
2018-09-06T00:02:08.470Z,67.23
2018-09-06T00:04:36.113Z,67.00
2018-09-06T00:07:03.786Z,66.71
2018-09-06T00:09:31.493Z,66.74
2018-09-06T00:11:59.172Z,66.68
2018-09-06T00:14:27.384Z,66.57
2018-09-06T00:16:55.090Z,65.85
2018-09-06T00:19:22.783Z,65.74
2018-09-06T00:21:50.408Z,65.34
2018-09-06T00:24:18.050Z,65.08
2018-09-06T00:26:45.648Z,64.86
2018-09-06T00:29:13.316Z,65.30
2018-09-06T00:31:41.029Z,65.83
2018-09-06T00:34:08.667Z,65.38
2018-09-06T00:36:36.352Z,66.03
2018-09-06T00:39:05.395Z,65.54
2018-09-06T00:41:33.021Z,66.10
2018-09-06T00:44:00.631Z,66.27
2018-09-06T00:46:28.372Z,66.15
2018-09-06T00:48:55.998Z,65.95
2018-09-06T00:51:23.658Z,65.55
2018-09-06T00:53:51.522Z,66.13
2018-09-06T00:56:19.129Z,65.96
2018-09-06T00:58:46.898Z,66.21
2018-09-06T01:01:14.520Z,66.82
2018-09-06T01:03:42.113Z,66.53
2018-09-06T01:06:09.756Z,66.23
2018-09-06T01:08:37.467Z,65.84
2018-09-06T01:11:05.955Z,65.37
2018-09-06T01:13:33.721Z,65.71
2018-09-06T01:16:01.385Z,65.73
2018-09-06T01:18:29.117Z,64.92
2018-09-06T01:20:56.776Z,65.04
2018-09-06T01:23:24.475Z,65.33
2018-09-06T01:25:52.218Z,66.23
2018-09-06T01:28:20.590Z,66.06
2018-09-06T01:30:48.651Z,66.70
2018-09-06T01:33:16.275Z,67.24
2018-09-06T01:35:48.510Z,67.39
2018-09-06T01:38:16.635Z,67.01
2018-09-06T01:40:44.344Z,66.79
2018-09-06T01:43:11.970Z,67.21
2018-09-06T01:45:39.562Z,66.88
2018-09-06T01:48:07.404Z,67.91
2018-09-06T01:50:35.068Z,68.14
2018-09-06T01:53:02.740Z,67.52
2018-09-06T01:55:30.313Z,67.66
2018-09-06T01:57:57.911Z,67.89
2018-09-06T02:00:25.527Z,68.04
2018-09-06T02:02:53.260Z,68.32
2018-09-06T02:05:26.779Z,68.78
2018-09-06T02:07:54.395Z,68.01
2018-09-06T02:10:22.500Z,68.44
2018-09-06T02:12:50.203Z,68.61
2018-09-06T02:15:17.970Z,68.88
2018-09-06T02:17:45.672Z,69.10
2018-09-06T02:20:13.429Z,69.44
2018-09-06T02:22:41.116Z,69.95
2018-09-06T02:25:09.118Z,69.78
2018-09-06T02:27:36.808Z,69.98
2018-09-06T02:30:04.740Z,70.65
2018-09-06T02:32:32.355Z,70.78
2018-09-06T02:34:59.976Z,70.00
2018-09-06T02:37:27.646Z,69.36
2018-09-06T02:39:55.278Z,69.34
2018-09-06T02:42:22.949Z,69.80
2018-09-06T02:44:50.517Z,70.00
2018-09-06T02:47:18.246Z,69.37
2018-09-06T02:49:51.700Z,70.07
2018-09-06T02:52:19.400Z,70.10
2018-09-06T02:54:47.064Z,70.93
2018-09-06T02:57:14.734Z,71.47
2018-09-06T02:59:45.400Z,71.08
2018-09-06T03:02:13.134Z,71.03
2018-09-06T03:04:40.922Z,70.85
2018-09-06T03:07:08.566Z,71.08
2018-09-06T03:09:36.149Z,70.94
2018-09-06T03:12:05.290Z,71.16
2018-09-06T03:14:32.955Z,71.29
2018-09-06T03:17:00.614Z,71.79
2018-09-06T03:19:28.270Z,71.60
2018-09-06T03:21:55.948Z,72.15
2018-09-06T03:24:23.624Z,72.23
2018-09-06T03:26:51.298Z,72.14
2018-09-06T03:29:19.001Z,72.95
2018-09-06T03:31:46.637Z,72.57
2018-09-06T03:34:14.266Z,73.31
2018-09-06T03:36:41.935Z,73.56
2018-09-06T03:39:10.178Z,73.33
2018-09-06T03:41:38.254Z,73.82
2018-09-06T03:44:05.891Z,74.02
2018-09-06T03:46:33.743Z,73.99
2018-09-06T03:49:01.430Z,73.84
2018-09-06T03:51:29.092Z,73.56
2018-09-06T03:53:56.779Z,74.63
2018-09-06T03:56:24.419Z,73.61
2018-09-06T03:58:52.140Z,73.50
2018-09-06T04:01:19.881Z,73.65
2018-09-06T04:03:47.489Z,73.82
2018-09-06T04:06:15.309Z,73.78
2018-09-06T04:08:43.101Z,73.97
2018-09-06T04:11:11.253Z,73.40
2018-09-06T04:13:38.903Z,74.61
2018-09-06T04:16:06.670Z,74.78
2018-09-06T04:18:34.337Z,74.61
2018-09-06T04:21:01.975Z,74.14
2018-09-06T04:23:29.657Z,74.87
2018-09-06T04:25:57.311Z,74.71
2018-09-06T04:28:24.977Z,74.79
2018-09-06T04:30:52.589Z,74.25
2018-09-06T04:33:20.169Z,75.14
2018-09-06T04:35:47.904Z,74.35
2018-09-06T04:38:15.493Z,74.31
2018-09-06T04:40:44.901Z,74.67
2018-09-06T04:43:12.535Z,74.44
2018-09-06T04:45:40.342Z,73.83
2018-09-06T04:48:08.039Z,73.30
2018-09-06T04:50:35.621Z,73.64
2018-09-06T04:53:03.297Z,73.76
2018-09-06T04:55:30.975Z,73.03
2018-09-06T04:57:58.579Z,73.34
2018-09-06T05:00:26.203Z,72.49
2018-09-06T05:02:53.968Z,72.31
2018-09-06T05:05:21.600Z,71.97
2018-09-06T05:07:49.210Z,72.02
2018-09-06T05:10:16.819Z,71.92
2018-09-06T05:12:44.465Z,71.71
2018-09-06T05:15:16.111Z,71.45
2018-09-06T05:17:43.799Z,71.24
2018-09-06T05:20:11.448Z,71.27
2018-09-06T05:22:39.176Z,71.20
2018-09-06T05:25:06.800Z,70.26
2018-09-06T05:27:34.422Z,69.77
2018-09-06T05:30:01.981Z,69.57
2018-09-06T05:32:29.666Z,68.57
2018-09-06T05:34:57.335Z,67.80
2018-09-06T05:37:25.044Z,66.77
2018-09-06T05:39:52.764Z,66.32
2018-09-06T05:42:20.818Z,66.14
2018-09-06T05:44:48.613Z,66.08
2018-09-06T05:47:16.295Z,65.24
2018-09-06T05:49:44.018Z,64.62
2018-09-06T05:52:11.629Z,64.93
2018-09-06T05:54:39.164Z,64.50
2018-09-06T05:57:06.887Z,63.91
2018-09-06T05:59:34.569Z,64.63
2018-09-06T06:02:02.132Z,64.00
2018-09-06T06:04:30.202Z,63.38
2018-09-06T06:06:57.971Z,61.86
2018-09-06T06:09:25.713Z,61.81
2018-09-06T06:11:53.353Z,61.08
2018-09-06T06:14:21.053Z,60.00
2018-09-06T06:16:54.677Z,58.66
2018-09-06T06:19:22.335Z,58.40
2018-09-06T06:21:50.004Z,58.28
2018-09-06T06:24:17.701Z,58.09
2018-09-06T06:26:45.333Z,57.73
2018-09-06T06:29:12.957Z,56.27
2018-09-06T06:31:40.589Z,56.49
2018-09-06T06:34:08.303Z,56.25
2018-09-06T06:36:36.004Z,55.98
2018-09-06T06:39:07.464Z,55.29
2018-09-06T06:41:35.484Z,55.30
2018-09-06T06:44:03.168Z,55.67
2018-09-06T06:46:30.854Z,55.91
2018-09-06T06:48:58.493Z,56.03
2018-09-06T06:51:26.157Z,55.10
2018-09-06T06:53:53.832Z,54.15
2018-09-06T06:56:21.521Z,53.91
2018-09-06T06:58:49.223Z,53.84
2018-09-06T07:01:16.950Z,53.79
2018-09-06T07:03:44.585Z,53.46
2018-09-06T07:06:12.169Z,53.34
2018-09-06T07:08:39.845Z,51.61
2018-09-06T07:11:07.522Z,50.87
2018-09-06T07:13:35.151Z,51.29
2018-09-06T07:16:02.831Z,50.40
2018-09-06T07:18:30.540Z,50.32
2018-09-06T07:20:58.324Z,50.71
2018-09-06T07:23:25.933Z,50.64
2018-09-06T07:25:53.621Z,50.37
2018-09-06T07:28:21.244Z,50.79
2018-09-06T07:30:48.922Z,50.70
2018-09-06T07:33:16.532Z,48.45
2018-09-06T07:35:44.254Z,47.98
2018-09-06T07:38:11.862Z,47.34
2018-09-06T07:40:39.792Z,46.14
2018-09-06T07:43:07.430Z,43.82
2018-09-06T07:45:35.086Z,43.49
2018-09-06T07:48:02.756Z,43.30
2018-09-06T07:50:30.569Z,43.93
2018-09-06T07:52:58.169Z,43.96
2018-09-06T07:55:25.783Z,43.45
2018-09-06T07:57:53.393Z,42.92
2018-09-06T08:00:20.942Z,43.96
2018-09-06T08:02:49.549Z,44.05
2018-09-06T08:05:17.180Z,43.01
2018-09-06T08:07:44.758Z,44.56
2018-09-06T08:10:12.417Z,44.07
2018-09-06T08:12:40.012Z,44.53
2018-09-06T08:15:07.684Z,44.70
2018-09-06T08:17:35.305Z,45.12
2018-09-06T08:20:03.005Z,45.00
2018-09-06T08:22:30.604Z,45.19
2018-09-06T08:24:58.160Z,44.62
2018-09-06T08:27:25.861Z,44.38
2018-09-06T08:29:53.454Z,43.82
2018-09-06T08:32:21.105Z,44.02
2018-09-06T08:34:48.796Z,44.15
2018-09-06T08:37:16.446Z,43.66
2018-09-06T08:39:44.136Z,43.34
2018-09-06T08:42:11.713Z,43.24
2018-09-06T08:44:39.308Z,43.36
2018-09-06T08:47:06.965Z,43.97
2018-09-06T08:49:34.720Z,43.91
2018-09-06T08:52:02.363Z,43.72
2018-09-06T08:54:29.994Z,42.30
2018-09-06T08:56:57.581Z,43.15
2018-09-06T08:59:25.218Z,43.44
2018-09-06T09:01:52.912Z,43.79
2018-09-06T09:04:20.518Z,42.80
2018-09-06T09:06:48.270Z,41.38
2018-09-06T09:09:15.919Z,41.63
2018-09-06T09:11:43.557Z,41.98
2018-09-06T09:14:11.177Z,41.07
2018-09-06T09:16:38.824Z,39.90
2018-09-06T09:19:07.500Z,39.96
2018-09-06T09:21:35.255Z,39.75
2018-09-06T09:24:04.097Z,40.06
2018-09-06T09:26:31.962Z,40.23
2018-09-06T09:28:59.600Z,40.05
2018-09-06T09:31:27.172Z,41.07
2018-09-06T09:33:54.820Z,40.25
2018-09-06T09:36:22.491Z,39.59
2018-09-06T09:38:50.142Z,39.21
2018-09-06T09:41:17.747Z,38.33
2018-09-06T09:43:45.374Z,37.69
2018-09-06T09:48:40.326Z,38.24
2018-09-06T09:51:08.032Z,38.05
2018-09-06T09:53:35.715Z,38.31
2018-09-06T09:56:03.563Z,38.34
2018-09-06T09:58:31.297Z,37.35
2018-09-06T10:00:59.107Z,37.37
2018-09-06T10:03:32.604Z,35.72
2018-09-06T10:06:05.940Z,35.45
2018-09-06T10:08:40.061Z,35.80
2018-09-06T10:11:07.768Z,36.16
2018-09-06T10:13:35.506Z,35.85
2018-09-06T10:16:03.247Z,32.87
2018-09-06T10:18:31.119Z,34.28
2018-09-06T10:20:59.045Z,32.45
2018-09-06T10:23:26.801Z,32.12
2018-09-06T10:25:54.557Z,31.38
2018-09-06T10:28:22.228Z,31.15
2018-09-06T10:30:49.951Z,30.61
2018-09-06T10:33:18.448Z,31.11
2018-09-06T10:35:46.089Z,30.78
2018-09-06T10:38:13.721Z,29.24
2018-09-06T10:40:41.384Z,30.17
2018-09-06T10:43:09.253Z,29.01
2018-09-06T10:45:37.051Z,29.68
2018-09-06T10:48:04.691Z,30.51
2018-09-06T10:50:32.352Z,29.73
2018-09-06T10:53:00.012Z,29.70
2018-09-06T10:55:27.606Z,29.70
2018-09-06T10:57:55.269Z,28.90
2018-09-06T11:00:23.006Z,29.71
2018-09-06T11:02:50.873Z,30.60
2018-09-06T11:05:18.589Z,29.48
2018-09-06T11:07:47.305Z,28.57
2018-09-06T11:10:14.905Z,29.35
2018-09-06T11:12:42.584Z,28.71
2018-09-06T11:15:10.338Z,28.68
2018-09-06T11:17:37.990Z,29.61
2018-09-06T11:20:05.690Z,29.37
2018-09-06T11:22:33.717Z,29.57
2018-09-06T11:25:01.144Z,28.50
2018-09-06T11:27:28.804Z,27.81
2018-09-06T11:29:56.455Z,28.67
2018-09-06T11:32:24.126Z,29.00
2018-09-06T11:34:51.841Z,25.55
2018-09-06T11:37:19.487Z,24.41
2018-09-06T11:39:47.257Z,22.34
2018-09-06T11:42:14.881Z,19.72
2018-09-06T11:44:42.557Z,17.28
2018-09-06T11:47:10.331Z,16.74
2018-09-06T11:49:37.931Z,16.19
2018-09-06T11:52:06.203Z,18.25
2018-09-06T11:54:33.943Z,16.20
2018-09-06T11:57:01.663Z,15.44
2018-09-06T11:59:29.465Z,14.54
2018-09-06T12:01:57.174Z,14.60
2018-09-06T12:04:24.897Z,14.70
2018-09-06T12:06:52.759Z,15.31
2018-09-06T12:09:20.453Z,15.20
2018-09-06T12:11:48.193Z,15.05
2018-09-06T12:14:15.855Z,14.28
2018-09-06T12:16:44.807Z,14.40
2018-09-06T12:19:12.689Z,14.90
2018-09-06T12:21:40.347Z,13.61
2018-09-06T12:24:08.015Z,12.09
2018-09-06T12:26:35.746Z,11.42
2018-09-06T12:29:03.661Z,12.53
2018-09-06T12:31:31.283Z,10.70
2018-09-06T12:33:59.027Z,10.17
2018-09-06T12:36:26.694Z,10.81
2018-09-06T12:38:54.351Z,12.39
2018-09-06T12:41:21.982Z,10.21
2018-09-06T12:43:49.794Z,9.46
2018-09-06T12:46:17.400Z,9.49
2018-09-06T12:48:45.053Z,9.31
2018-09-06T12:51:12.714Z,8.78
2018-09-06T12:53:40.322Z,8.12
2018-09-06T12:56:07.958Z,9.28
2018-09-06T12:58:35.603Z,10.14
2018-09-06T13:01:03.194Z,10.05
2018-09-06T13:03:30.862Z,8.90
2018-09-06T13:05:58.490Z,8.49
2018-09-06T13:08:26.090Z,7.92
2018-09-06T13:10:53.685Z,7.81
2018-09-06T13:13:21.315Z,7.63
2018-09-06T13:15:48.997Z,6.67
2018-09-06T13:18:16.698Z,7.27
2018-09-06T13:20:44.303Z,8.85
2018-09-06T13:23:12.048Z,8.58
2018-09-06T13:25:39.839Z,8.70
2018-09-06T13:28:07.597Z,8.75
2018-09-06T13:30:35.211Z,7.83
2018-09-06T13:33:02.809Z,7.87
2018-09-06T13:35:30.446Z,7.59
2018-09-06T13:37:57.996Z,7.28
2018-09-06T13:40:25.602Z,7.72
2018-09-06T13:42:53.352Z,8.10
2018-09-06T13:45:20.952Z,8.58
2018-09-06T13:47:48.526Z,9.60
2018-09-06T13:50:16.173Z,9.61
2018-09-06T13:52:43.786Z,11.18
2018-09-06T13:55:11.482Z,11.85
2018-09-06T13:57:39.082Z,10.32
2018-09-06T14:00:06.794Z,10.26
2018-09-06T14:02:34.484Z,10.17
2018-09-06T14:05:02.177Z,10.43
2018-09-06T14:07:29.802Z,11.63
2018-09-06T14:09:57.513Z,12.20
2018-09-06T14:12:25.103Z,12.11
2018-09-06T14:14:52.771Z,11.03
2018-09-06T14:17:20.357Z,10.85
2018-09-06T14:19:47.955Z,10.17
2018-09-06T14:22:15.701Z,9.00
2018-09-06T14:24:43.412Z,9.26
2018-09-06T14:27:11.086Z,8.41
2018-09-06T14:29:38.777Z,8.30
2018-09-06T14:32:06.467Z,7.80
2018-09-06T14:34:34.121Z,8.31
2018-09-06T14:37:01.924Z,8.08
2018-09-06T14:39:29.560Z,8.55
2018-09-06T14:41:57.357Z,9.02
2018-09-06T14:44:24.931Z,8.85
2018-09-06T14:46:52.605Z,8.53
2018-09-06T14:49:20.343Z,8.32
2018-09-06T14:51:48.047Z,8.77
2018-09-06T14:54:15.770Z,8.21
2018-09-06T14:56:43.388Z,8.34
2018-09-06T14:59:11.202Z,8.65
2018-09-06T15:01:38.818Z,7.98
2018-09-06T15:04:06.934Z,8.60
2018-09-06T15:06:34.630Z,9.41
2018-09-06T15:09:02.546Z,9.45
2018-09-06T15:11:30.328Z,9.88
2018-09-06T15:13:57.969Z,10.41
2018-09-06T15:16:25.730Z,11.11
2018-09-06T15:18:53.612Z,11.92
2018-09-06T15:21:21.220Z,10.81
2018-09-06T15:23:48.854Z,11.40
2018-09-06T15:26:16.476Z,9.94
2018-09-06T15:28:44.111Z,9.54
2018-09-06T15:31:11.763Z,9.99
2018-09-06T15:33:39.765Z,10.67
2018-09-06T15:36:07.530Z,10.28
2018-09-06T15:38:35.519Z,10.34
2018-09-06T15:41:03.165Z,10.44
2018-09-06T15:43:30.913Z,10.90
2018-09-06T15:45:58.676Z,11.58
2018-09-06T15:48:27.172Z,12.01
2018-09-06T15:50:55.783Z,11.76
2018-09-06T15:53:25.192Z,13.79
2018-09-06T15:55:53.216Z,14.66
2018-09-06T15:58:20.972Z,15.51
2018-09-06T16:00:48.697Z,16.37
2018-09-06T16:03:16.421Z,18.34
2018-09-06T16:05:44.228Z,19.03
2018-09-06T16:08:11.864Z,20.47
2018-09-06T16:10:39.577Z,21.06
2018-09-06T16:13:07.567Z,21.12
2018-09-06T16:15:35.250Z,21.05
2018-09-06T16:18:02.945Z,20.87
2018-09-06T16:20:30.553Z,19.86
2018-09-06T16:22:58.202Z,21.03
2018-09-06T16:25:25.964Z,20.40
2018-09-06T16:27:54.377Z,21.79
2018-09-06T16:30:22.177Z,22.87
2018-09-06T16:32:49.943Z,22.70
2018-09-06T16:35:22.115Z,23.14
2018-09-06T16:37:49.821Z,22.42
2018-09-06T16:40:17.430Z,24.08
2018-09-06T16:42:45.069Z,24.48
2018-09-06T16:45:12.683Z,25.29
2018-09-06T16:47:40.445Z,25.31
2018-09-06T16:50:08.275Z,25.24
2018-09-06T16:52:35.899Z,25.70
2018-09-06T16:55:03.647Z,26.95
2018-09-06T16:57:31.467Z,27.84
2018-09-06T16:59:59.163Z,27.03
2018-09-06T17:02:26.839Z,28.14
2018-09-06T17:04:54.531Z,28.53
2018-09-06T17:07:22.518Z,29.90
2018-09-06T17:09:50.155Z,31.70
2018-09-06T17:12:17.822Z,29.97
2018-09-06T17:14:45.611Z,31.54
2018-09-06T17:17:13.439Z,29.89
2018-09-06T17:19:41.107Z,32.40
2018-09-06T17:22:08.780Z,33.41
2018-09-06T17:24:36.417Z,34.35
2018-09-06T17:27:04.192Z,33.09
2018-09-06T17:29:31.845Z,32.20
2018-09-06T17:31:59.572Z,32.31
2018-09-06T17:34:27.172Z,31.46
2018-09-06T17:36:54.854Z,30.96
2018-09-06T17:39:22.491Z,31.35
2018-09-06T17:41:50.590Z,31.77
2018-09-06T17:44:18.382Z,32.30
2018-09-06T17:46:46.109Z,32.51
2018-09-06T17:49:13.806Z,32.50
2018-09-06T17:51:41.644Z,32.58
2018-09-06T17:54:10.940Z,32.65
2018-09-06T17:56:38.588Z,33.52
2018-09-06T17:59:06.360Z,33.65
2018-09-06T18:01:36.198Z,33.75
2018-09-06T18:04:04.437Z,34.32
2018-09-06T18:06:32.400Z,33.93
2018-09-06T18:09:00.340Z,34.22
2018-09-06T18:11:29.658Z,34.86
2018-09-06T18:13:57.741Z,35.50
2018-09-06T18:16:25.649Z,35.30
2018-09-06T18:18:53.836Z,35.77
2018-09-06T18:21:21.948Z,35.50
2018-09-06T18:23:49.674Z,36.70
2018-09-06T18:26:17.434Z,36.05
2018-09-06T18:28:45.332Z,36.48
2018-09-06T18:31:13.481Z,36.88
2018-09-06T18:33:41.684Z,36.53
2018-09-06T18:36:09.795Z,37.57
2018-09-06T18:38:40.292Z,38.09
2018-09-06T18:41:08.743Z,38.62
2018-09-06T18:43:36.707Z,38.77
2018-09-06T18:46:04.554Z,38.79
2018-09-06T18:48:32.878Z,40.00
2018-09-06T18:51:00.606Z,39.71
2018-09-06T18:53:29.030Z,40.35
2018-09-06T18:55:57.055Z,39.80
2018-09-06T18:58:25.146Z,39.99
2018-09-06T19:00:53.284Z,39.86
2018-09-06T19:03:21.011Z,39.91
2018-09-06T19:05:48.778Z,40.85
2018-09-06T19:08:16.474Z,44.10
2018-09-06T19:10:44.366Z,43.11
2018-09-06T19:13:12.109Z,41.79
2018-09-06T19:15:39.786Z,42.56
2018-09-06T19:18:07.515Z,44.64
2018-09-06T19:20:35.170Z,44.72
2018-09-06T19:23:02.836Z,45.11
2018-09-06T19:25:30.479Z,45.43
2018-09-06T19:27:58.297Z,45.92
2018-09-06T19:30:26.058Z,46.36
2018-09-06T19:32:53.868Z,46.40
2018-09-06T19:35:21.509Z,47.75
2018-09-06T19:37:49.251Z,47.40
2018-09-06T19:40:17.257Z,46.77
2018-09-06T19:42:45.047Z,46.93
2018-09-06T19:45:13.011Z,47.62
2018-09-06T19:47:41.123Z,48.18
2018-09-06T19:50:09.120Z,47.37
2018-09-06T19:52:36.819Z,48.82
2018-09-06T19:55:04.984Z,48.71
2018-09-06T19:57:32.733Z,48.79
2018-09-06T20:00:00.487Z,49.61
2018-09-06T20:02:28.425Z,49.87
2018-09-06T20:04:57.055Z,50.50
2018-09-06T20:10:04.184Z,50.92
2018-09-06T20:12:32.425Z,51.03
2018-09-06T20:15:00.181Z,51.08
2018-09-06T20:17:27.962Z,51.64
2018-09-06T20:19:56.065Z,52.17
2018-09-06T20:22:25.102Z,51.96
2018-09-06T20:24:52.928Z,53.17
2018-09-06T20:27:20.845Z,53.31
2018-09-06T20:29:48.691Z,53.18
2018-09-06T20:32:16.907Z,53.36
2018-09-06T20:34:45.123Z,53.59
2018-09-06T20:37:12.880Z,54.00
2018-09-06T20:39:40.532Z,53.91
2018-09-06T20:42:08.258Z,53.77
2018-09-06T20:44:35.992Z,54.21
2018-09-06T20:47:04.464Z,54.43
2018-09-06T20:49:32.742Z,54.98
2018-09-06T20:52:00.372Z,54.90
2018-09-06T20:54:27.974Z,55.81
2018-09-06T20:56:55.918Z,55.33
2018-09-06T20:59:23.764Z,55.69
2018-09-06T21:01:51.428Z,56.04
2018-09-06T21:04:19.191Z,55.46
2018-09-06T21:06:46.907Z,55.56
2018-09-06T21:09:15.188Z,55.42
2018-09-06T21:11:42.916Z,55.53
2018-09-06T21:14:10.561Z,56.05
2018-09-06T21:16:38.277Z,56.32
2018-09-06T21:19:05.934Z,56.40
2018-09-06T21:21:33.608Z,55.84
2018-09-06T21:24:01.229Z,56.26
2018-09-06T21:26:28.882Z,56.39
2018-09-06T21:28:56.512Z,56.18
2018-09-06T21:31:24.181Z,56.37
2018-09-06T21:33:51.917Z,56.78
2018-09-06T21:36:19.734Z,56.64
2018-09-06T21:38:47.432Z,56.20
2018-09-06T21:41:15.109Z,56.88
2018-09-06T21:43:42.763Z,57.09
2018-09-06T21:46:10.393Z,56.20
2018-09-06T21:48:38.245Z,56.93
2018-09-06T21:51:06.149Z,57.99
2018-09-06T21:53:33.833Z,56.85
2018-09-06T21:56:01.571Z,57.68
2018-09-06T21:58:29.361Z,57.71
2018-09-06T22:00:56.993Z,56.76
2018-09-06T22:03:30.396Z,57.86
2018-09-06T22:05:58.074Z,56.66
2018-09-06T22:08:25.688Z,56.86
2018-09-06T22:10:53.471Z,56.98
2018-09-06T22:13:21.181Z,57.72
2018-09-06T22:15:48.829Z,57.99
2018-09-06T22:18:16.478Z,58.10
2018-09-06T22:20:44.134Z,58.39
2018-09-06T22:23:11.885Z,57.95
2018-09-06T22:25:39.487Z,58.81
2018-09-06T22:28:07.192Z,58.78
2018-09-06T22:30:34.861Z,58.64
2018-09-06T22:33:02.536Z,58.87
2018-09-06T22:35:30.190Z,59.36
2018-09-06T22:37:57.827Z,58.92
2018-09-06T22:40:25.515Z,58.82
2018-09-06T22:42:53.218Z,59.34
2018-09-06T22:45:20.854Z,59.79
2018-09-06T22:47:49.458Z,59.84
2018-09-06T22:50:17.123Z,59.46
2018-09-06T22:52:44.766Z,59.86
2018-09-06T22:55:12.950Z,59.58
2018-09-06T22:57:40.650Z,58.01
2018-09-06T23:00:08.316Z,58.67
2018-09-06T23:02:41.867Z,57.01
2018-09-06T23:05:09.511Z,57.85
2018-09-06T23:07:37.219Z,57.43
2018-09-06T23:10:05.456Z,57.16
2018-09-06T23:12:33.106Z,56.41
2018-09-06T23:15:00.775Z,56.36
2018-09-06T23:17:28.416Z,55.48
2018-09-06T23:19:56.030Z,54.82
2018-09-06T23:22:30.642Z,54.67
2018-09-06T23:24:58.230Z,54.98
2018-09-06T23:27:26.154Z,54.52
2018-09-06T23:29:54.481Z,53.92
2018-09-06T23:32:22.406Z,54.91
2018-09-06T23:34:50.018Z,53.60
2018-09-06T23:37:17.601Z,54.38
2018-09-06T23:39:45.233Z,54.10
2018-09-06T23:42:12.853Z,53.81
2018-09-06T23:44:40.505Z,53.38
2018-09-06T23:47:08.143Z,53.81
2018-09-06T23:49:35.797Z,53.65
2018-09-06T23:52:03.437Z,53.65
2018-09-06T23:54:31.061Z,54.12
2018-09-06T23:56:58.795Z,53.70
2018-09-06T23:59:26.447Z,54.15
